Πλησιέστερες Αναφορές METAR

 

LGTS - Thessaloniki/Makedonia-Elev 7m
Απόσταση από σταθμό: Ν 13km
Ενημερώθηκε: 24/04/2019 01:20
Διάσπαρτα Νέφη
Διάσπαρτα Νέφη
 Ανεμοι από άπνοια
Ανεμος: άπνοια
Θερμοκρασία: 13°C
Σημείο Δρόσου: 9°C
Υγρασία: 77%
Βαρόμετρο: 1023 hPa
Νέφωση: Διάσπαρτα Νέφη
Ορατότητα: 10 km
Λεπτομέρειες Νεφών: Διάσπαρτα Νέφη 762 m
2019/04/23 22:20 LGTS 232220Z 00000KT 9999 FEW025 13/09 Q1023 NOSIG
LGAV - Athens/Elef. Venizelos-Elev 94m
Απόσταση από σταθμό: ΝΝΑ 312km
Ενημερώθηκε: 24/04/2019 01:20
Αίθριος
Αίθριος
 Ανεμοι από μεταβλητός
Ανεμος: μεταβλητός 4 km/h
Θερμοκρασία: 12°C
Σημείο Δρόσου: 10°C
Υγρασία: 88%
Βαρόμετρο: 1023 hPa
Περίληψη: Αίθριος
Ορατότητα: πάνω από 10 km
2019/04/23 22:20 LGAV 232220Z VRB02KT CAVOK 12/10 Q1023 NOSIG
 
LGAL - Alexandroupolis-Elev 3m
Απόσταση από σταθμό: Α 251km
Ενημερώθηκε: 23/04/2019 22:20
ΜΗ Ενημερωμένο METAR!
Διάσπαρτα Νέφη
Διάσπαρτα Νέφη
 Ανεμοι από ΒΑ
Ανεμος: ΒΑ 13 km/h
Θερμοκρασία: 13°C
Σημείο Δρόσου: 7°C
Υγρασία: 67%
Βαρόμετρο: 1024 hPa
Νέφωση: Διάσπαρτα Νέφη
Ορατότητα: 10 km
Λεπτομέρειες Νεφών: Διάσπαρτα Νέφη 1067 m
2019/04/23 19:20 LGAL 231920Z 04007KT 9999 FEW035 13/07 Q1024
LGKV - Kavala/Crysoupolis-Elev 5m
Απόσταση από σταθμό: ΑΒΑ 144km
Ενημερώθηκε: 23/04/2019 23:20
ΜΗ Ενημερωμένο METAR!
Διάσπαρτα Νέφη
Διάσπαρτα Νέφη
 Ανεμοι από ΒΑ
Ανεμος: ΒΑ 9 km/h
Θερμοκρασία: 13°C
Σημείο Δρόσου: 6°C
Υγρασία: 63%
Βαρόμετρο: 1024 hPa
Νέφωση: Διάσπαρτα Νέφη
Ορατότητα: 10 km
Λεπτομέρειες Νεφών: Διάσπαρτα Νέφη 1372 m
2019/04/23 20:20 LGKV 232020Z 04005KT 9999 FEW045 13/06 Q1024
 
LGSK - Skiathos Island-Elev 15m
Απόσταση από σταθμό: ΝΝΑ 168km
Ενημερώθηκε: 23/04/2019 20:50
ΜΗ Ενημερωμένο METAR!
Αίθριος
Αίθριος
 Ανεμοι από άπνοια
Ανεμος: άπνοια
Θερμοκρασία: 15°C
Σημείο Δρόσου: 9°C
Υγρασία: 68%
Βαρόμετρο: 1022 hPa
Περίληψη: Αίθριος
Ορατότητα: πάνω από 10 km
2019/04/23 17:50 LGSK 231750Z 00000KT CAVOK 15/09 Q1022
LGLM - Limnos Island-Elev 5m
Απόσταση από σταθμό: ΑΝΑ 210km
Ενημερώθηκε: 24/04/2019 00:50
Μερικώς νεφελώδης
Μερικώς νεφελώδης
 Ανεμοι από ΒΒΔ
Ανεμος: ΒΒΔ 7 km/h
Θερμοκρασία: 13°C
Σημείο Δρόσου: 10°C
Υγρασία: 82%
Βαρόμετρο: 1022 hPa
Νέφωση: Μερικώς νεφελώδης
Ορατότητα: 10 km
Λεπτομέρειες Νεφών: Μερικώς νεφελώδης 762 m
2019/04/23 21:50 LGLM 232150Z 34004KT 9999 SCT025 13/10 Q1022
 
LGMT - Mitilini Island-Elev 17m
Απόσταση από σταθμό: ΑΝΑ 358km
Ενημερώθηκε: 23/04/2019 22:50
ΜΗ Ενημερωμένο METAR!
Μερικώς νεφελώδης
Μερικώς νεφελώδης
 Ανεμοι από μεταβλητός
Ανεμος: μεταβλητός 4 km/h
Θερμοκρασία: 15°C
Σημείο Δρόσου: 6°C
Υγρασία: 55%
Βαρόμετρο: 1024 hPa
Νέφωση: Μερικώς νεφελώδης
Ορατότητα: 10 km
Λεπτομέρειες Νεφών: Μερικώς νεφελώδης 762 m
2019/04/23 19:50 LGMT 231950Z VRB02KT 9999 SCT025 15/06 Q1024
LGSY - Skiros Island-Elev 15m
Απόσταση από σταθμό: ΝΑ 227km
Ενημερώθηκε: 23/04/2019 23:50
ΜΗ Ενημερωμένο METAR!
Διάσπαρτα Νέφη
Διάσπαρτα Νέφη
 Ανεμοι από ΝΑ
Ανεμος: ΝΑ 9 km/h
Θερμοκρασία: 15°C
Σημείο Δρόσου: 9°C
Υγρασία: 68%
Βαρόμετρο: 1022 hPa
Νέφωση: Διάσπαρτα Νέφη
Ορατότητα: 10 km
Λεπτομέρειες Νεφών: Διάσπαρτα Νέφη 762 m
2019/04/23 20:50 LGSY 232050Z 14005KT 9999 FEW025 15/09 Q1022 RMK BKN090 BKN180 BLU
 
LGKZ - Kozani-Elev 628m
Απόσταση από σταθμό: ΔΝΔ 102km
Ενημερώθηκε: 23/04/2019 14:50
ΜΗ Ενημερωμένο METAR!
Μερικώς νεφελώδης
Μερικώς νεφελώδης
 Ανεμοι από ΝΝΑ
Ανεμος: ΝΝΑ 7 km/h
Θερμοκρασία: 13°C
Σημείο Δρόσου: 7°C
Υγρασία: 67%
Βαρόμετρο: 1022 hPa
Νέφωση: Μερικώς νεφελώδης
Ορατότητα: 10 km
Λεπτομέρειες Νεφών: Διάσπαρτα Νέφη 762 m
Μερικώς νεφελώδης 2134 m
2019/04/23 11:50 LGKZ 231150Z 15004KT 9999 FEW025 SCT070 13/07 Q1022
LGIO - Ioannina-Elev 476m
Απόσταση από σταθμό: ΔΝΔ 209km
Ενημερώθηκε: 23/04/2019 22:20
ΜΗ Ενημερωμένο METAR!
Σχεδόν νεφελώδης
Σχεδόν νεφελώδης
 Ανεμοι από μεταβλητός
Ανεμος: μεταβλητός 0 km/h
Θερμοκρασία: 12°C
Σημείο Δρόσου: 6°C
Υγρασία: 67%
Βαρόμετρο: 1019 hPa
Νέφωση: Σχεδόν νεφελώδης
Ορατότητα: 10 km
Λεπτομέρειες Νεφών: Μερικώς νεφελώδης 1067 m
Σχεδόν νεφελώδης 2438 m
2019/04/23 19:20 LGIO 231920Z /////KT 9999 SCT035 BKN080 12/06 Q1019
 
LGZA - Zakinthos-Elev 3m
Απόσταση από σταθμό: ΝΝΔ 367km
Ενημερώθηκε: 23/04/2019 20:50
ΜΗ Ενημερωμένο METAR!
Σχεδόν νεφελώδης
Σχεδόν νεφελώδης
 Ανεμοι από ΝΑ
Ανεμος: ΝΑ 19 km/h
Θερμοκρασία: 18°C
Σημείο Δρόσου: 9°C
Υγρασία: 56%
Βαρόμετρο: 1018 hPa
Νέφωση: Σχεδόν νεφελώδης
Ορατότητα: 10 km
Λεπτομέρειες Νεφών: Διάσπαρτα Νέφη 610 m
Σχεδόν νεφελώδης 2134 m
2019/04/23 17:50 LGZA 231750Z 13010KT 9999 FEW020 BKN070 18/09 Q1018
LGKR - Corfu Island-Elev 2m
Απόσταση από σταθμό: ΔΝΔ 282km
Ενημερώθηκε: 24/04/2019 01:20
Σχεδόν νεφελώδης
Σχεδόν νεφελώδης
 Ανεμοι από άπνοια
Ανεμος: άπνοια
Θερμοκρασία: 18°C
Σημείο Δρόσου: 9°C
Υγρασία: 56%
Βαρόμετρο: 1018 hPa
Νέφωση: Σχεδόν νεφελώδης
Ορατότητα: 10 km
Λεπτομέρειες Νεφών: Διάσπαρτα Νέφη 1067 m
Σχεδόν νεφελώδης 2438 m
2019/04/23 22:20 LGKR 232220Z 00000KT 9999 FEW035 BKN080 18/09 Q1018 NOSIG
 
LGSO - Syros Island-Elev 72m
Απόσταση από σταθμό: ΝΝΑ 397km
Ενημερώθηκε: 24/04/2019 01:20

 Ανεμοι από Α
Ανεμος: Α 9 km/h
Θερμοκρασία: 16°C
Σημείο Δρόσου: 10°C
Υγρασία: 68%
Βαρόμετρο: 1023 hPa
2019/04/23 22:20 LGSO 232220Z AUTO 08005KT //// // ////// 16/10 Q1023 RE//
LGMK - Mikonos Island-Elev 123m
Απόσταση από σταθμό: ΝΝΑ 412km
Ενημερώθηκε: 23/04/2019 23:50
ΜΗ Ενημερωμένο METAR!
Αίθριος
Αίθριος
 Ανεμοι από ΑΝΑ
Ανεμος: ΑΝΑ 20 km/h
Θερμοκρασία: 16°C
Σημείο Δρόσου: 8°C
Υγρασία: 59%
Βαρόμετρο: 1022 hPa
Περίληψη: Αίθριος
Ορατότητα: πάνω από 10 km
2019/04/23 20:50 LGMK 232050Z 11011KT CAVOK 16/08 Q1022
 
LGSR - Santorini Island-Elev 40m
Απόσταση από σταθμό: ΝΝΑ 520km
Ενημερώθηκε: 24/04/2019 01:20
Μερικώς νεφελώδης
Μερικώς νεφελώδης
 Ανεμοι από ΝΑ
Ανεμος: ΝΑ 26 km/h
Θερμοκρασία: 16°C
Σημείο Δρόσου: 13°C
Υγρασία: 83%
Βαρόμετρο: 1022 hPa
Νέφωση: Μερικώς νεφελώδης
Ορατότητα: 10 km
Λεπτομέρειες Νεφών: Μερικώς νεφελώδης 549 m
2019/04/23 22:20 LGSR 232220Z 13014KT 9999 SCT018 16/13 Q1022
LGKL - Kalamata-Elev 8m
Απόσταση από σταθμό: Ν 405km
Ενημερώθηκε: 24/04/2019 00:50
Διάσπαρτα Νέφη
Διάσπαρτα Νέφη
 Ανεμοι από Β
Ανεμος: Β 11 km/h
Θερμοκρασία: 14°C
Σημείο Δρόσου: 7°C
Υγρασία: 63%
Βαρόμετρο: 1019 hPa
Νέφωση: Διάσπαρτα Νέφη
Ορατότητα: 10 km
Λεπτομέρειες Νεφών: Διάσπαρτα Νέφη 2438 m
2019/04/23 21:50 LGKL 232150Z 35006KT 9999 FEW080 14/07 Q1019
 
LGIR - Iraklion/Crete-Elev 5m
Απόσταση από σταθμό: ΝΝΑ 622km
Ενημερώθηκε: 24/04/2019 01:20
Σχεδόν νεφελώδης
Σχεδόν νεφελώδης
 Ανεμοι από ΝΝΑ
Ανεμος: ΝΝΑ 37 km/h
Θερμοκρασία: 20°C
Σημείο Δρόσου: 1°C
Υγρασία: 28%
Βαρόμετρο: 1019 hPa
Νέφωση: Σχεδόν νεφελώδης
Ορατότητα: 10 km
Λεπτομέρειες Νεφών: Διάσπαρτα Νέφη 914 m
Σχεδόν νεφελώδης 2743 m
2019/04/23 22:20 LGIR 232220Z 16020KT 9999 FEW030 BKN090 20/01 Q1019 NOSIG
LGRP - Rhodes-Elev 5m
Απόσταση από σταθμό: ΝΑ 649km
Ενημερώθηκε: 24/04/2019 01:20
Διάσπαρτα Νέφη
Διάσπαρτα Νέφη
 Ανεμοι από μεταβλητός
Ανεμος: μεταβλητός 7 km/h
Θερμοκρασία: 15°C
Σημείο Δρόσου: 8°C
Υγρασία: 63%
Βαρόμετρο: 1024 hPa
Νέφωση: Διάσπαρτα Νέφη
Ορατότητα: 10 km
Λεπτομέρειες Νεφών: Διάσπαρτα Νέφη 762 m
2019/04/23 22:20 LGRP 232220Z VRB04KT 9999 FEW025 15/08 Q1024 NOSIG
 
LWOH - Ohrid/FYROM-Elev 761m
Απόσταση από σταθμό: ΔΒΔ 188km
Ενημερώθηκε: 23/04/2019 21:30
ΜΗ Ενημερωμένο METAR!
Σχεδόν νεφελώδης
Σχεδόν νεφελώδης
 Ανεμοι από ΝΑ
Ανεμος: ΝΑ 15 km/h
Θερμοκρασία: 11°C
Σημείο Δρόσου: 6°C
Υγρασία: 72%
Βαρόμετρο: 1019 hPa
Νέφωση: Σχεδόν νεφελώδης
Ορατότητα: 10 km
Λεπτομέρειες Νεφών: Μερικώς νεφελώδης 1219 m
Σχεδόν νεφελώδης 2743 m
2019/04/23 18:30 LWOH 231830Z 14008KT 110V170 9999 SCT040 BKN090 11/06 Q1019
LBSF - Sofia/Bulgaria-Elev 595m
Απόσταση από σταθμό: Β 227km
Ενημερώθηκε: 24/04/2019 01:00
Διάσπαρτα Νέφη
Διάσπαρτα Νέφη
 Ανεμοι από Α
Ανεμος: Α 17 km/h
Θερμοκρασία: 9°C
Δείκτης Ψύχρας: 7°C
Σημείο Δρόσου: 5°C
Υγρασία: 76%
Βαρόμετρο: 1023 hPa
Νέφωση: Διάσπαρτα Νέφη
Ορατότητα: 10 km
Λεπτομέρειες Νεφών: Διάσπαρτα Νέφη 2073 m
2019/04/23 22:00 LBSF 232200Z 09009KT 9999 FEW068 09/05 Q1023 NOSIG